Time;durP1;ratioP1;P1;durP2;ratioP2;P2;SDS_P1;SDS_P2;PMS_P1;PMS_P2;Temp;Humidity;BMP_temperature;BMP_pressure;BME280_temperature;BME280_humidity;BME280_pressure;Samples;Min_cycle;Max_cycle;Signal;HPM_P1;HPM_P2
2023/11/25 00:00:07;;;;;;;2.43;1.10;;;1.80;89.00;;;0.47;97.16;96646.59;4937963;28;20469;-72
2023/11/25 00:02:34;;;;;;;0.60;0.50;;;1.60;90.00;;;0.45;96.58;96655.75;4944476;28;20452;-72
2023/11/25 00:05:03;;;;;;;0.60;0.60;;;1.60;89.30;;;0.50;93.32;96648.88;4946257;29;20462;-72
2023/11/25 00:07:32;;;;;;;0.90;0.60;;;1.60;86.30;;;0.60;91.62;96655.75;4947296;28;20494;-71
2023/11/25 00:10:00;;;;;;;1.17;0.40;;;1.60;84.60;;;0.50;90.85;96643.56;4946163;29;20552;-71
2023/11/25 00:12:29;;;;;;;1.23;0.93;;;1.60;83.60;;;0.39;89.37;96631.56;4947006;29;20455;-72
2023/11/25 00:14:56;;;;;;;2.60;0.60;;;1.60;83.00;;;0.36;88.71;96626.63;4939601;29;20455;-72
2023/11/25 00:17:28;;;;;;;1.90;0.80;;;1.60;82.30;;;0.34;88.72;96646.41;4945341;28;20456;-72
2023/11/25 00:19:56;;;;;;;1.23;0.60;;;1.50;82.20;;;0.38;88.72;96648.53;4947474;28;20935;-71
2023/11/25 00:22:23;;;;;;;1.33;0.70;;;1.50;81.90;;;0.34;88.92;96659.69;4943771;29;20453;-71
2023/11/25 00:24:51;;;;;;;1.00;0.90;;;1.50;82.20;;;0.32;89.79;96667.03;4946739;28;21621;-72
2023/11/25 00:27:19;;;;;;;1.53;0.60;;;1.40;82.60;;;0.26;89.74;96658.78;4922474;29;20487;-72
2023/11/25 00:29:47;;;;;;;0.93;0.70;;;1.40;83.00;;;0.21;89.81;96671.78;4946742;28;20455;-72
2023/11/25 00:32:15;;;;;;;3.13;0.70;;;1.30;82.90;;;0.12;89.01;96664.94;4946765;29;20539;-71
2023/11/25 00:34:43;;;;;;;0.60;0.60;;;1.30;82.30;;;0.30;89.20;96685.00;4951661;28;20978;-72
2023/11/25 00:37:11;;;;;;;3.70;0.80;;;1.40;82.40;;;0.21;88.72;96674.44;4947047;28;20451;-72
2023/11/25 00:39:38;;;;;;;0.77;0.63;;;1.40;82.00;;;0.32;87.48;96682.97;4946002;29;20516;-72
2023/11/25 00:42:05;;;;;;;0.67;0.60;;;1.40;81.50;;;0.39;86.95;96687.38;4945083;28;20463;-72
2023/11/25 00:44:32;;;;;;;1.00;0.60;;;1.50;81.10;;;0.49;85.66;96695.06;4946088;28;20823;-71
2023/11/25 00:47:02;;;;;;;0.70;0.60;;;1.60;80.50;;;0.62;84.82;96693.59;4945508;28;20901;-71
2023/11/25 00:49:29;;;;;;;1.20;0.73;;;1.60;80.20;;;0.72;84.54;96698.63;4947842;28;20462;-72
2023/11/25 00:51:57;;;;;;;1.43;0.70;;;1.60;80.00;;;0.56;83.84;96687.19;4939215;28;20468;-71
2023/11/25 00:54:24;;;;;;;1.07;0.90;;;1.60;79.30;;;0.52;83.25;96705.31;4947560;28;20483;-72
2023/11/25 00:56:52;;;;;;;2.43;0.60;;;1.60;78.90;;;0.51;82.85;96697.56;4946541;28;20491;-72
2023/11/25 00:59:19;;;;;;;1.10;0.70;;;1.60;78.70;;;0.54;82.77;96711.31;4945418;28;20452;-72
2023/11/25 01:01:46;;;;;;;0.90;0.50;;;1.60;78.50;;;0.37;82.75;96685.91;4945578;28;20948;-72
2023/11/25 01:04:15;;;;;;;0.73;0.70;;;1.60;78.60;;;0.53;82.16;96720.28;4946552;28;20457;-71
2023/11/25 01:06:46;;;;;;;1.20;0.73;;;1.60;78.00;;;0.59;81.96;96709.91;4948135;28;20485;-70
2023/11/25 01:09:15;;;;;;;1.13;0.50;;;1.70;78.00;;;-0.05;81.41;96630.56;4950197;28;20835;-70
2023/11/25 01:11:43;;;;;;;0.70;0.60;;;1.70;77.40;;;0.67;81.34;96766.47;4951721;28;20462;-72
2023/11/25 01:14:10;;;;;;;1.47;0.43;;;1.80;77.60;;;0.60;81.46;96738.16;4951986;28;20455;-72
2023/11/25 01:16:37;;;;;;;1.27;0.50;;;1.80;77.50;;;0.79;81.17;96753.53;4949943;28;20506;-71
2023/11/25 01:19:05;;;;;;;0.60;0.50;;;1.80;77.50;;;0.74;80.39;96761.25;4952031;28;20459;-72
2023/11/25 01:21:33;;;;;;;0.60;0.40;;;1.80;77.00;;;0.79;80.72;96769.50;4949790;28;21101;-71
2023/11/25 01:24:01;;;;;;;0.73;0.57;;;1.80;77.20;;;0.74;80.65;96798.47;4953381;28;20458;-71
2023/11/25 01:26:28;;;;;;;3.13;0.77;;;1.80;77.10;;;0.81;80.28;96778.09;4950572;28;20469;-72
2023/11/25 01:28:55;;;;;;;2.30;0.70;;;1.90;76.80;;;0.94;80.00;96796.09;4950689;28;20444;-72
2023/11/25 01:31:23;;;;;;;0.93;0.87;;;1.90;77.00;;;0.88;80.10;96798.66;4950549;28;20463;-71
2023/11/25 01:33:50;;;;;;;1.37;0.97;;;1.90;76.90;;;0.63;79.45;96778.50;4939468;28;20451;-71
2023/11/25 01:36:17;;;;;;;0.90;0.70;;;1.90;76.60;;;0.65;80.15;96788.94;4946593;29;20479;-71
2023/11/25 01:38:46;;;;;;;0.93;0.67;;;1.90;76.70;;;0.92;80.39;96813.25;4953130;28;20456;-71
2023/11/25 01:41:13;;;;;;;0.97;0.63;;;1.90;77.10;;;0.83;79.94;96820.50;4943282;29;20469;-72
2023/11/25 01:43:40;;;;;;;2.50;0.57;;;1.90;76.70;;;0.58;79.87;96786.16;4946845;28;20452;-72
2023/11/25 01:46:08;;;;;;;1.57;0.43;;;1.90;76.60;;;0.90;79.83;96850.66;4947649;28;20463;-73
2023/11/25 01:48:36;;;;;;;0.93;0.70;;;1.90;76.80;;;0.89;80.82;96842.88;4963166;28;20476;-72
2023/11/25 01:51:04;;;;;;;0.40;0.30;;;1.90;77.00;;;0.84;80.49;96844.25;4948783;29;20552;-72
2023/11/25 01:53:33;;;;;;;0.70;0.40;;;1.90;77.00;;;0.76;79.97;96843.47;4948487;28;20460;-72
2023/11/25 01:56:02;;;;;;;1.97;0.60;;;1.90;76.70;;;0.71;80.61;96854.69;4942407;29;20478;-70
2023/11/25 01:58:32;;;;;;;0.70;0.70;;;1.90;76.70;;;0.78;81.96;96863.56;4949523;28;20503;-72
2023/11/25 02:00:59;;;;;;;2.33;0.87;;;1.80;77.50;;;0.70;82.23;96861.00;4961463;28;20470;-73
2023/11/25 02:03:26;;;;;;;3.13;0.70;;;1.70;77.60;;;0.64;81.96;96867.03;4949809;28;20472;-73
2023/11/25 02:05:54;;;;;;;2.53;0.40;;;1.70;77.50;;;0.58;81.22;96873.09;4948701;28;20454;-73
2023/11/25 02:08:22;;;;;;;1.90;0.57;;;1.60;77.30;;;0.61;81.50;96880.69;4931366;29;20522;-70
2023/11/25 02:10:50;;;;;;;1.77;0.70;;;1.60;77.30;;;0.54;80.41;96893.88;4948328;28;20456;-71
2023/11/25 02:13:19;;;;;;;0.80;0.40;;;1.60;76.60;;;0.60;81.06;96881.69;4945777;29;20451;-72
2023/11/25 02:15:46;;;;;;;1.23;0.97;;;1.60;77.00;;;0.53;81.02;96901.03;4948143;28;20457;-72
2023/11/25 02:18:16;;;;;;;1.43;0.67;;;1.60;76.90;;;0.52;80.63;96907.34;4964333;28;20455;-71
2023/11/25 02:20:45;;;;;;;0.70;0.70;;;1.60;76.60;;;0.27;81.19;96856.22;4949243;28;20950;-71
2023/11/25 02:23:22;;;;;;;2.83;0.70;;;1.60;76.90;;;0.58;80.97;96911.13;4944327;28;21343;-71
2023/11/25 02:25:52;;;;;;;0.80;0.53;;;1.60;77.00;;;0.62;80.78;96922.22;4946941;28;20492;-71
2023/11/25 02:28:20;;;;;;;1.33;1.10;;;1.60;76.90;;;0.66;81.17;96920.84;4959923;28;20488;-71
2023/11/25 02:30:48;;;;;;;0.83;0.43;;;1.60;77.00;;;0.53;81.40;96930.28;4944607;29;20496;-72
2023/11/25 02:33:16;;;;;;;2.80;0.70;;;1.50;77.10;;;0.57;81.06;96933.38;4946192;29;20547;-72
2023/11/25 02:35:46;;;;;;;0.70;0.50;;;1.60;77.00;;;0.54;81.22;96934.59;4941654;28;20455;-73
2023/11/25 02:38:14;;;;;;;3.13;0.70;;;1.60;77.20;;;0.46;81.03;96931.97;4946137;28;20486;-72
2023/11/25 02:40:45;;;;;;;4.00;0.80;;;1.60;77.00;;;0.01;81.49;96884.00;4945176;28;20557;-72
2023/11/25 02:43:13;;;;;;;2.73;0.70;;;1.50;77.00;;;0.43;81.37;96940.31;4944036;29;20459;-72
2023/11/25 02:45:42;;;;;;;3.83;0.60;;;1.50;77.20;;;0.44;81.71;96952.59;4943135;28;20610;-72
2023/11/25 02:48:09;;;;;;;1.87;0.70;;;1.50;77.30;;;0.37;82.03;96954.28;4958503;28;20586;-71
2023/11/25 02:50:38;;;;;;;3.80;0.90;;;1.40;77.40;;;0.41;82.24;96963.59;4945187;28;20447;-73
2023/11/25 02:53:06;;;;;;;2.13;0.77;;;1.40;77.50;;;0.24;82.06;96942.44;4946526;29;20538;-73
2023/11/25 02:55:33;;;;;;;4.87;1.17;;;1.30;77.50;;;0.30;82.63;96966.66;4941755;28;20467;-72
2023/11/25 02:58:02;;;;;;;3.20;1.00;;;1.30;77.70;;;-0.38;83.24;96863.63;4942007;28;20860;-71
2023/11/25 03:00:30;;;;;;;4.73;0.60;;;1.30;77.90;;;0.32;83.08;96961.97;4945931;28;21247;-72
2023/11/25 03:03:09;;;;;;;1.60;0.60;;;1.40;78.10;;;-0.05;82.70;96917.38;4949407;28;20456;-72
2023/11/25 03:05:37;;;;;;;1.33;1.00;;;1.40;78.00;;;0.33;82.45;96967.13;4944927;28;20462;-72
2023/11/25 03:08:09;;;;;;;2.40;0.90;;;1.40;77.90;;;0.41;82.49;96968.91;4943419;28;20511;-72
2023/11/25 03:10:41;;;;;;;6.07;1.63;;;1.40;78.00;;;0.15;82.60;96954.13;4947065;28;20538;-73
2023/11/25 03:13:10;;;;;;;1.40;0.70;;;1.30;77.90;;;0.14;82.99;96965.75;4947615;28;20461;-72
2023/11/25 03:15:38;;;;;;;3.70;0.50;;;1.30;78.00;;;0.25;82.97;96981.28;4947258;28;20455;-72
2023/11/25 03:18:06;;;;;;;1.87;1.23;;;1.20;78.30;;;0.12;83.58;97004.94;4949111;28;20494;-72
2023/11/25 03:20:34;;;;;;;1.70;0.83;;;1.10;78.20;;;0.17;83.78;96994.59;4949052;28;20569;-72
2023/11/25 03:23:03;;;;;;;2.37;0.80;;;1.10;78.50;;;0.05;84.21;97018.09;4941431;28;20465;-73
2023/11/25 03:25:30;;;;;;;2.33;0.90;;;1.00;78.50;;;-0.01;84.19;97022.25;4946793;28;20838;-72
2023/11/25 03:28:04;;;;;;;1.53;0.60;;;1.00;78.60;;;-0.16;84.18;97024.78;4953566;28;20479;-71
2023/11/25 03:30:33;;;;;;;0.70;0.43;;;0.90;78.70;;;-0.20;84.64;97026.13;4945187;28;20456;-74
2023/11/25 03:33:00;;;;;;;1.80;0.77;;;0.90;79.00;;;-0.09;85.07;97037.41;4944083;28;20492;-72
2023/11/25 03:35:28;;;;;;;5.67;0.93;;;0.90;79.00;;;-0.02;84.33;97039.19;4944112;28;20453;-72
2023/11/25 03:37:55;;;;;;;4.53;0.60;;;0.90;79.20;;;-0.08;84.53;97045.19;4946115;28;20476;-72
2023/11/25 03:40:22;;;;;;;1.87;0.73;;;0.80;79.10;;;-0.23;84.85;97053.03;4941865;28;20536;-72
2023/11/25 03:42:50;;;;;;;2.93;0.73;;;0.80;79.10;;;-0.34;85.21;97051.59;4946253;28;20548;-71
2023/11/25 03:45:17;;;;;;;3.20;0.80;;;0.70;79.10;;;-0.47;85.67;97041.47;4943891;28;20482;-71
2023/11/25 03:47:46;;;;;;;4.27;1.40;;;0.60;79.20;;;-0.47;84.99;97054.75;4944959;29;20540;-71
2023/11/25 03:50:15;;;;;;;2.93;0.70;;;0.60;78.90;;;-0.67;85.44;97041.03;4947666;28;20446;-71
2023/11/25 03:52:43;;;;;;;2.10;0.80;;;0.60;79.10;;;-0.59;85.84;97046.31;4944224;28;20533;-70
2023/11/25 03:55:10;;;;;;;3.10;0.80;;;0.50;79.10;;;-0.55;85.41;97075.16;4947680;28;20471;-71
2023/11/25 03:57:38;;;;;;;1.93;0.83;;;0.50;79.10;;;-0.63;85.66;97079.50;4945918;28;20525;-72
2023/11/25 04:00:14;;;;;;;2.97;0.77;;;0.40;79.10;;;-0.61;85.55;97081.97;4945759;28;20567;-71
2023/11/25 04:02:44;;;;;;;1.87;1.43;;;0.40;79.00;;;-0.61;85.33;97087.28;4947092;28;20450;-72
2023/11/25 04:05:13;;;;;;;1.70;0.63;;;0.40;78.90;;;-0.61;85.01;97084.63;4946908;29;20471;-73
2023/11/25 04:07:40;;;;;;;1.63;0.90;;;0.40;78.90;;;-0.84;84.69;97063.25;4946706;28;20484;-73
2023/11/25 04:10:13;;;;;;;1.23;0.90;;;0.40;78.70;;;-0.65;85.28;97091.25;4949055;28;20521;-72
2023/11/25 04:12:41;;;;;;;1.70;0.63;;;0.30;78.90;;;-0.71;84.42;97103.38;4941833;28;20461;-71
2023/11/25 04:15:11;;;;;;;1.13;0.80;;;0.30;78.70;;;-0.83;84.77;97078.16;4946674;28;20458;-72
2023/11/25 04:17:38;;;;;;;1.47;0.60;;;0.30;78.50;;;-0.73;84.42;97102.72;4958939;28;20447;-72
2023/11/25 04:20:13;;;;;;;1.17;0.60;;;0.30;78.50;;;-0.76;84.69;97095.09;4948244;28;20537;-71
2023/11/25 04:22:42;;;;;;;3.43;1.00;;;0.30;78.60;;;-0.78;85.23;97099.72;4938837;28;20947;-71
2023/11/25 04:25:10;;;;;;;3.83;0.83;;;0.30;78.70;;;-0.84;85.43;97113.63;4947653;28;20461;-71
2023/11/25 04:27:40;;;;;;;1.80;0.63;;;0.20;78.90;;;-0.86;85.69;97117.28;4947746;28;20574;-70
2023/11/25 04:30:10;;;;;;;0.90;0.80;;;0.20;79.20;;;-0.90;86.31;97115.97;4948404;28;20455;-72
2023/11/25 04:32:37;;;;;;;0.93;0.80;;;0.10;79.30;;;-0.92;86.31;97112.66;4939368;28;20472;-71
2023/11/25 04:35:08;;;;;;;2.80;1.20;;;0.10;79.50;;;-0.91;86.49;97114.31;4955701;28;20464;-71
2023/11/25 04:37:36;;;;;;;1.63;0.70;;;0.10;79.60;;;-0.98;86.71;97115.13;4944665;29;20522;-71
2023/11/25 04:40:05;;;;;;;4.67;0.70;;;0.00;79.60;;;-0.91;86.48;97130.22;4945662;28;20874;-71
2023/11/25 04:42:32;;;;;;;1.23;1.13;;;0.10;79.80;;;-0.99;86.86;97127.53;4944230;28;20487;-71
2023/11/25 04:45:00;;;;;;;2.63;1.10;;;0.10;79.60;;;-1.12;86.79;97106.81;4948453;28;20508;-70
2023/11/25 04:47:28;;;;;;;1.93;0.60;;;0.10;79.80;;;-1.19;86.58;97103.19;4948194;28;20472;-70
2023/11/25 04:49:55;;;;;;;1.70;1.03;;;0.00;79.70;;;-1.16;87.00;97114.28;4966598;28;20516;-71
2023/11/25 04:52:24;;;;;;;2.07;1.00;;;0.00;79.70;;;-1.74;86.54;97028.53;4950670;28;20454;-70
2023/11/25 04:54:51;;;;;;;4.07;0.80;;;0.10;79.80;;;-1.04;86.60;97140.47;4950959;28;20482;-71
2023/11/25 04:57:19;;;;;;;1.00;0.80;;;0.00;79.90;;;-1.06;87.18;97138.00;4949411;28;20467;-72
2023/11/25 04:59:46;;;;;;;1.70;0.70;;;0.00;79.90;;;-1.15;87.75;97138.97;4949214;28;20457;-71
2023/11/25 05:02:13;;;;;;;2.37;0.67;;;-0.10;80.10;;;-1.20;88.39;97136.81;4959971;28;20454;-72
2023/11/25 05:04:41;;;;;;;2.20;1.07;;;-0.10;80.50;;;-1.18;88.03;97153.38;4948656;28;20635;-71
2023/11/25 05:07:08;;;;;;;4.77;1.00;;;-0.10;80.60;;;-1.18;88.59;97153.38;4949708;28;20450;-73
2023/11/25 05:09:41;;;;;;;6.97;1.10;;;-0.10;80.90;;;-1.16;89.02;97143.44;4951079;28;20483;-71
2023/11/25 05:12:09;;;;;;;2.93;1.10;;;-0.10;81.20;;;-1.30;88.98;97154.66;4947254;28;20458;-71
2023/11/25 05:14:36;;;;;;;3.30;1.27;;;-0.10;81.40;;;-1.22;88.96;97157.34;4945206;28;20446;-72
2023/11/25 05:17:05;;;;;;;1.70;0.90;;;-0.10;81.30;;;-1.34;89.12;97142.72;4965287;28;20464;-73
2023/11/25 05:19:32;;;;;;;1.90;1.23;;;-0.10;81.50;;;-1.22;88.48;97157.34;4950067;28;20798;-71
2023/11/25 05:21:59;;;;;;;1.43;1.33;;;-0.10;81.10;;;-1.27;88.43;97157.00;4947576;28;20465;-70
2023/11/25 05:24:27;;;;;;;5.63;1.70;;;-0.20;81.10;;;-1.31;88.76;97156.50;4953298;28;20457;-72
2023/11/25 05:26:55;;;;;;;1.90;1.33;;;-0.20;81.10;;;-1.24;88.75;97161.97;4961024;28;20455;-72
2023/11/25 05:29:23;;;;;;;3.37;1.00;;;-0.20;81.10;;;-1.31;88.78;97145.06;4953881;28;20537;-71
2023/11/25 05:31:50;;;;;;;4.40;1.20;;;-0.20;81.40;;;-1.57;88.93;97145.97;4950618;28;20723;-72
2023/11/25 05:34:17;;;;;;;2.87;1.13;;;-0.20;81.40;;;-1.27;89.20;97172.91;4954761;28;20474;-71
2023/11/25 05:36:44;;;;;;;1.73;1.33;;;-0.20;81.50;;;-1.36;89.37;97173.88;4947505;28;20471;-72
2023/11/25 05:39:13;;;;;;;1.17;1.07;;;-0.30;81.50;;;-1.34;89.24;97174.53;4947007;28;20528;-71
2023/11/25 05:41:41;;;;;;;2.23;1.57;;;-0.30;81.60;;;-1.31;88.89;97180.34;4951381;28;20457;-71
2023/11/25 05:44:10;;;;;;;2.83;0.90;;;-0.20;81.80;;;-1.41;89.36;97161.09;4952036;28;20461;-72
2023/11/25 05:46:37;;;;;;;4.30;1.63;;;-0.30;81.80;;;-1.37;89.68;97174.84;4963364;28;21112;-72
2023/11/25 05:49:06;;;;;;;2.93;1.50;;;-0.30;81.80;;;-1.34;89.32;97183.31;4944212;28;20479;-72
2023/11/25 05:51:36;;;;;;;5.17;1.30;;;-0.30;81.80;;;-1.34;89.64;97182.47;4941192;28;20491;-70
2023/11/25 05:54:03;;;;;;;1.63;1.33;;;-0.30;81.90;;;-1.36;89.55;97179.16;4945134;28;20463;-71
2023/11/25 05:56:31;;;;;;;2.17;1.60;;;-0.30;82.00;;;-1.51;89.71;97182.44;4948255;28;20443;-70
2023/11/25 05:58:58;;;;;;;1.77;1.30;;;-0.40;82.20;;;-1.56;90.10;97179.44;4948901;28;20977;-71
2023/11/25 06:01:27;;;;;;;1.57;1.03;;;-0.40;82.40;;;-1.37;89.93;97194.22;4945372;28;20449;-71
2023/11/25 06:03:55;;;;;;;1.70;1.23;;;-0.30;82.60;;;-1.41;89.66;97198.19;4949465;29;20466;-70
2023/11/25 06:06:23;;;;;;;4.83;1.60;;;-0.40;82.30;;;-1.57;89.78;97161.88;4947556;28;20547;-72
2023/11/25 06:08:50;;;;;;;1.80;1.03;;;-0.40;82.50;;;-1.41;90.45;97202.69;4950777;28;20538;-71
2023/11/25 06:11:21;;;;;;;2.87;1.20;;;-0.40;82.70;;;-1.59;90.29;97190.34;4947614;28;20463;-70
2023/11/25 06:13:48;;;;;;;3.50;1.50;;;-0.40;82.80;;;-1.52;90.27;97193.16;4953284;28;20454;-71
2023/11/25 06:16:16;;;;;;;1.67;1.37;;;-0.40;82.80;;;-1.54;90.53;97197.81;4944155;28;20518;-71
2023/11/25 06:18:45;;;;;;;2.10;1.70;;;-0.40;83.00;;;-1.55;90.01;97194.34;4947532;28;20470;-72
2023/11/25 06:21:13;;;;;;;0.83;0.83;;;-0.40;82.90;;;-1.48;90.34;97208.59;4942218;28;20455;-71
2023/11/25 06:23:40;;;;;;;2.93;1.20;;;-0.40;82.50;;;-1.41;89.85;97218.59;4943308;29;20465;-71
2023/11/25 06:26:10;;;;;;;3.67;1.33;;;-0.30;82.60;;;-1.44;90.52;97215.25;4942049;28;20524;-71
2023/11/25 06:28:41;;;;;;;1.37;1.07;;;-0.40;82.90;;;-1.64;91.09;97205.88;4948064;28;20483;-70
2023/11/25 06:31:09;;;;;;;2.57;1.30;;;-0.40;83.40;;;-1.67;90.79;97198.25;4946669;28;20462;-71
2023/11/25 06:33:36;;;;;;;1.80;1.70;;;-0.40;83.20;;;-1.54;90.84;97219.84;4939421;28;20823;-71
2023/11/25 06:36:06;;;;;;;2.20;1.40;;;-0.40;83.10;;;-1.67;90.92;97193.75;4944037;28;20482;-71
2023/11/25 06:38:34;;;;;;;6.20;1.33;;;-0.40;83.00;;;-1.54;90.72;97219.84;4948083;28;20458;-71
2023/11/25 06:41:01;;;;;;;1.90;1.47;;;-0.40;83.00;;;-1.48;90.56;97228.97;4945734;28;20480;-71
2023/11/25 06:43:29;;;;;;;2.40;1.30;;;-0.40;82.90;;;-1.43;90.54;97230.16;4962096;28;21380;-72
2023/11/25 06:45:58;;;;;;;3.43;1.30;;;-0.30;83.00;;;-1.37;90.48;97235.81;4941716;28;20533;-73
2023/11/25 06:48:25;;;;;;;4.33;1.57;;;-0.40;82.90;;;-1.45;90.62;97234.78;4948228;29;20470;-74
2023/11/25 06:50:53;;;;;;;1.80;1.17;;;-0.40;83.00;;;-1.43;90.22;97231.97;4946670;28;20454;-71
2023/11/25 06:53:22;;;;;;;2.50;1.20;;;-0.40;83.20;;;-1.46;90.55;97241.06;4946299;28;20457;-74
2023/11/25 06:55:50;;;;;;;2.63;1.50;;;-0.40;83.40;;;-1.21;89.68;97235.88;4941983;28;20464;-74
2023/11/25 06:58:18;;;;;;;4.90;1.70;;;-0.30;82.90;;;-1.14;88.57;97236.06;4945638;28;20454;-69
2023/11/25 07:00:46;;;;;;;5.57;1.77;;;-0.20;82.60;;;-1.12;88.57;97227.97;4944691;28;20475;-69
2023/11/25 07:03:13;;;;;;;3.00;1.60;;;-0.20;82.10;;;-1.13;88.29;97229.78;4943756;28;20457;-68
2023/11/25 07:05:41;;;;;;;3.60;1.40;;;-0.10;81.90;;;-1.07;88.14;97238.91;4941428;28;20519;-69
2023/11/25 07:08:10;;;;;;;3.67;1.47;;;-0.10;81.50;;;-1.13;87.98;97232.44;4943289;28;20545;-69
2023/11/25 07:10:40;;;;;;;3.27;1.70;;;-0.10;81.30;;;-1.03;87.75;97237.59;4948495;28;20451;-74
2023/11/25 07:13:07;;;;;;;2.30;1.30;;;-0.10;81.50;;;-0.96;87.84;97233.31;4946402;29;20534;-72
2023/11/25 07:15:35;;;;;;;3.83;1.47;;;0.00;81.50;;;-1.02;87.56;97237.44;4945103;28;20459;-74
2023/11/25 07:18:03;;;;;;;3.53;1.60;;;0.00;81.10;;;-1.44;86.86;97166.72;4941663;28;20476;-73
2023/11/25 07:20:31;;;;;;;5.47;3.10;;;0.00;81.10;;;-0.94;87.36;97231.34;4947139;29;20514;-73
2023/11/25 07:22:59;;;;;;;3.37;1.70;;;0.00;81.20;;;-0.84;86.60;97247.09;4944539;29;20888;-73
2023/11/25 07:25:29;;;;;;;1.60;1.47;;;0.10;81.10;;;-0.86;86.48;97236.66;4941349;28;20552;-72
2023/11/25 07:27:57;;;;;;;3.57;1.57;;;0.10;80.70;;;-0.74;86.55;97244.31;4947673;28;20461;-73
2023/11/25 07:30:25;;;;;;;1.60;1.20;;;0.20;80.90;;;-0.77;86.27;97249.94;4944822;28;20489;-72
2023/11/25 07:32:52;;;;;;;5.40;1.33;;;0.20;80.70;;;-1.25;86.62;97165.63;4943805;28;20461;-73
2023/11/25 07:35:20;;;;;;;2.37;1.57;;;0.20;80.20;;;-0.67;85.76;97242.69;4944599;28;20919;-74
2023/11/25 07:37:47;;;;;;;3.27;1.40;;;0.30;80.30;;;-0.50;86.29;97242.72;4939123;29;20488;-74
2023/11/25 07:40:15;;;;;;;2.63;1.80;;;0.40;80.80;;;-0.28;85.26;97241.22;4945245;28;20478;-73
2023/11/25 07:42:45;;;;;;;5.47;1.63;;;0.60;80.70;;;-0.42;84.47;97240.03;4947758;28;21386;-72
2023/11/25 07:45:14;;;;;;;5.93;2.07;;;0.50;79.50;;;-0.38;83.83;97252.00;4945493;28;20464;-73
2023/11/25 07:47:44;;;;;;;3.70;1.83;;;0.60;79.40;;;-0.35;84.15;97243.72;4948111;28;20467;-73
2023/11/25 07:50:12;;;;;;;1.70;1.50;;;0.70;79.30;;;-0.32;83.61;97253.16;4947795;29;20490;-72
2023/11/25 07:52:39;;;;;;;1.83;1.47;;;0.70;79.00;;;-0.15;84.62;97230.09;4956413;28;20462;-71
2023/11/25 07:55:08;;;;;;;2.80;2.47;;;0.90;80.20;;;-0.14;83.67;97247.69;4943584;29;20526;-72
2023/11/25 07:57:37;;;;;;;5.00;1.63;;;0.90;79.00;;;-0.16;83.57;97244.38;4946522;28;20501;-72
2023/11/25 08:00:06;;;;;;;2.23;1.70;;;0.80;79.10;;;-0.10;84.09;97253.50;4958259;28;20475;-74
2023/11/25 08:02:35;;;;;;;3.97;1.90;;;0.80;79.10;;;-0.01;83.90;97263.97;4947111;28;20457;-72
2023/11/25 08:05:04;;;;;;;4.00;1.83;;;0.90;79.30;;;-0.02;84.01;97264.97;4942497;29;20461;-74
2023/11/25 08:07:31;;;;;;;4.37;2.27;;;0.90;79.30;;;-0.12;84.74;97260.81;4944735;28;20471;-81
2023/11/25 08:09:58;;;;;;;2.20;1.90;;;0.90;79.30;;;0.01;84.46;97258.50;4942347;28;20484;-73
2023/11/25 08:12:25;;;;;;;3.50;1.50;;;0.90;79.60;;;0.05;84.96;97256.31;4937064;28;20833;-73
2023/11/25 08:14:53;;;;;;;2.80;1.90;;;1.00;79.70;;;0.04;84.77;97265.28;4941892;29;20481;-76
2023/11/25 08:17:21;;;;;;;4.67;2.40;;;1.00;79.70;;;0.18;84.61;97272.56;4945300;28;20984;-77
2023/11/25 08:19:49;;;;;;;6.67;3.53;;;1.10;80.00;;;-0.25;85.02;97192.25;4942543;28;20950;-75
2023/11/25 08:22:17;;;;;;;5.20;2.10;;;1.10;80.10;;;0.23;83.99;97249.00;4939428;28;20482;-78
2023/11/25 08:24:44;;;;;;;7.33;2.50;;;1.10;80.00;;;0.28;85.10;97265.25;4959528;28;20861;-75
2023/11/25 08:27:12;;;;;;;2.80;2.17;;;1.10;80.20;;;0.24;85.26;97260.44;4952816;28;20479;-76
2023/11/25 08:29:39;;;;;;;7.43;2.40;;;1.20;80.30;;;0.18;85.33;97251.31;4948528;28;20482;-70
2023/11/25 08:32:07;;;;;;;4.97;2.43;;;1.20;80.30;;;0.14;86.06;97257.97;4942091;28;20470;-72
2023/11/25 08:34:34;;;;;;;4.77;2.40;;;1.10;80.40;;;-0.14;86.21;97237.06;4938833;28;20460;-77
2023/11/25 08:37:05;;;;;;;5.20;2.20;;;1.10;80.60;;;0.14;86.39;97268.59;4942590;28;20725;-72
2023/11/25 08:39:33;;;;;;;10.00;2.83;;;1.10;80.80;;;0.19;86.52;97262.78;4944367;29;20543;-71
2023/11/25 08:42:00;;;;;;;11.80;3.37;;;1.10;81.10;;;0.02;86.77;97236.25;4940741;28;20464;-72
2023/11/25 08:44:28;;;;;;;3.80;2.57;;;1.10;81.30;;;0.24;86.86;97271.91;4943407;28;20463;-81
2023/11/25 08:46:59;;;;;;;5.73;3.00;;;1.20;81.40;;;0.21;86.95;97258.94;4956625;28;20458;-72
2023/11/25 08:49:27;;;;;;;4.30;3.03;;;1.20;81.30;;;0.53;87.90;97275.88;4967448;28;20530;-78
2023/11/25 08:51:55;;;;;;;6.20;3.40;;;1.30;82.40;;;0.56;86.04;97253.41;4954020;28;20461;-81
2023/11/25 08:54:23;;;;;;;4.83;3.20;;;1.40;81.40;;;0.82;84.68;97263.78;4951428;28;20512;-79
2023/11/25 08:56:54;;;;;;;5.90;3.30;;;1.60;81.40;;;1.17;82.87;97268.81;4945803;29;20449;-75
2023/11/25 08:59:24;;;;;;;6.57;2.83;;;1.90;80.30;;;1.19;82.39;97258.00;4941940;28;20452;-73
2023/11/25 09:01:53;;;;;;;3.90;2.97;;;2.10;79.60;;;0.80;83.00;97271.09;4940895;28;20452;-76
2023/11/25 09:04:22;;;;;;;5.57;3.40;;;1.90;79.00;;;0.71;84.04;97288.09;4934679;28;20814;-75
2023/11/25 09:06:50;;;;;;;5.30;2.80;;;1.80;79.30;;;0.66;84.26;97269.16;4939787;28;20975;-76
2023/11/25 09:09:19;;;;;;;5.60;4.20;;;1.70;79.60;;;0.94;84.14;97276.72;4936837;28;20483;-71
2023/11/25 09:11:48;;;;;;;7.80;5.00;;;1.80;79.90;;;1.30;82.62;97270.91;4940246;29;20486;-70
2023/11/25 09:14:16;;;;;;;4.93;2.60;;;2.10;79.80;;;1.54;80.96;97274.44;4952443;28;20559;-70
2023/11/25 09:16:44;;;;;;;8.97;3.00;;;2.40;78.70;;;1.48;80.40;97267.16;4938259;28;20568;-69
2023/11/25 09:19:12;;;;;;;3.50;2.60;;;2.50;78.20;;;1.57;80.50;97282.06;4947174;28;20478;-70
2023/11/25 09:21:41;;;;;;;6.67;2.70;;;2.50;78.00;;;1.20;80.34;97249.81;4940944;28;21039;-69
2023/11/25 09:24:09;;;;;;;5.63;2.80;;;2.40;77.60;;;1.27;80.73;97261.44;4942445;28;20839;-70
2023/11/25 09:26:36;;;;;;;2.70;2.50;;;2.30;78.00;;;1.40;80.98;97290.13;4958439;28;20459;-70
2023/11/25 09:29:06;;;;;;;12.03;3.83;;;2.30;78.00;;;1.58;81.17;97273.06;4945572;28;20582;-69
2023/11/25 09:31:33;;;;;;;3.93;2.63;;;2.40;78.10;;;1.45;79.98;97241.69;4947951;28;21219;-69
2023/11/25 09:34:02;;;;;;;2.93;2.73;;;2.50;77.50;;;1.53;80.15;97262.97;4944521;28;21187;-70
2023/11/25 09:36:30;;;;;;;7.00;2.90;;;2.50;77.30;;;1.56;79.67;97229.81;4954933;28;20456;-71
2023/11/25 09:38:58;;;;;;;4.60;3.70;;;2.60;77.50;;;1.62;79.31;97242.44;4943354;28;20449;-71
2023/11/25 09:41:25;;;;;;;8.30;3.77;;;2.60;77.20;;;1.73;79.43;97249.16;4943611;28;20471;-74
2023/11/25 09:43:53;;;;;;;5.63;3.33;;;2.70;77.10;;;1.85;78.80;97244.25;4944834;28;20450;-70
2023/11/25 09:46:21;;;;;;;3.80;2.13;;;2.70;77.00;;;1.97;77.97;97242.81;4945558;29;20495;-71
2023/11/25 09:48:49;;;;;;;4.63;3.20;;;2.90;76.60;;;2.26;78.24;97221.72;4948974;28;20456;-71
2023/11/25 09:51:25;;;;;;;4.00;3.30;;;3.20;77.00;;;2.74;76.09;97240.06;4944296;28;20511;-69
2023/11/25 09:53:57;;;;;;;6.80;3.50;;;3.50;76.50;;;2.05;75.23;97142.50;4944730;28;20576;-69
2023/11/25 09:56:24;;;;;;;5.17;2.93;;;3.50;75.40;;;2.75;75.13;97239.06;4954939;28;20571;-70
2023/11/25 09:58:52;;;;;;;4.70;3.10;;;3.60;75.00;;;2.90;74.32;97232.88;4944596;28;20887;-70
2023/11/25 10:01:22;;;;;;;4.43;3.27;;;3.70;75.10;;;2.65;74.83;97169.97;4947329;28;20483;-70
2023/11/25 10:03:53;;;;;;;4.37;2.60;;;3.80;75.10;;;3.00;74.23;97227.25;4947817;29;20460;-70
2023/11/25 10:06:20;;;;;;;3.50;2.67;;;3.90;74.50;;;2.51;75.07;97198.31;4943155;28;20596;-69
2023/11/25 10:08:47;;;;;;;5.40;2.97;;;3.60;74.60;;;2.36;74.95;97178.84;4946101;28;20465;-70
2023/11/25 10:11:17;;;;;;;6.20;2.67;;;3.50;74.50;;;2.80;75.52;97201.97;4948215;28;20481;-68
2023/11/25 10:13:46;;;;;;;7.30;3.83;;;3.60;74.80;;;2.88;74.43;97198.38;4938118;28;20464;-69
2023/11/25 10:16:14;;;;;;;11.00;3.17;;;3.70;74.30;;;2.89;74.74;97209.88;4952893;28;20457;-69
2023/11/25 10:18:42;;;;;;;6.73;3.00;;;3.80;74.30;;;2.82;73.57;97189.28;4937713;28;20489;-70
2023/11/25 10:21:10;;;;;;;12.73;3.90;;;3.80;73.70;;;2.98;73.64;97158.06;4945073;28;21356;-70
2023/11/25 10:23:37;;;;;;;12.07;3.30;;;3.90;74.30;;;3.56;72.29;97178.56;4945214;28;20464;-69
2023/11/25 10:26:06;;;;;;;6.83;3.47;;;4.30;73.90;;;3.69;72.44;97173.34;4945400;28;20459;-68
2023/11/25 10:28:36;;;;;;;8.33;3.20;;;4.60;73.60;;;2.96;71.54;97072.03;4939529;28;20501;-68
2023/11/25 10:31:07;;;;;;;6.00;3.17;;;4.60;72.90;;;3.45;73.09;97171.88;4944661;29;20574;-70